This is the latest recevied weather packets stored in our database for station/object W4EDL-13. If no packets are shown the sender has not sent any weather packets the latest 1 day(s).
| Time | Temp. | Humidity | Pressure | Rain* | Wind** | Luminosity | Snow |
|---|---|---|---|---|---|---|---|
| 1778038184 | 21.67° C | 79% | 1007.3 hPa | - | - | - | - |
| 1778037583 | 21.67° C | 78% | 1007.3 hPa | - | - | - | - |
| 1778036983 | 21.67° C | 78% | 1007.3 hPa | - | - | - | - |
| 1778036382 | 21.11° C | 79% | 1007.3 hPa | - | - | - | - |
| 1778035782 | 21.11° C | 79% | 1007.3 hPa | - | - | - | - |
| 1778035181 | 21.11° C | 77% | 1007.6 hPa | - | - | - | - |
| 1778034580 | 21.11° C | 76% | 1007.3 hPa | - | - | - | - |
| 1778033980 | 21.67° C | 74% | 1007.3 hPa | - | - | - | - |
| 1778032779 | 21.67° C | 73% | 1007.3 hPa | - | - | - | - |
| 1778032178 | 21.67° C | 73% | 1007.3 hPa | - | - | - | - |
| 1778030977 | 22.22° C | 71% | 1007.3 hPa | - | - | - | - |
| 1778030376 | 22.22° C | 70% | 1006.6 hPa | - | - | - | - |
| 1778029175 | 22.78° C | 68% | 1006.3 hPa | - | - | - | - |
| 1778028574 | 22.78° C | 67% | 1006.3 hPa | - | - | - | - |
| 1778028574 | 22.78° C | 67% | 1006.3 hPa | - | - | - | - |
| 1778027374 | 22.78° C | 65% | 1006.3 hPa | - | - | - | - |
| 1778026772 | 23.33° C | 63% | 1006.3 hPa | - | - | - | - |
| 1778024370 | 24.44° C | 59% | 1006.3 hPa | - | - | - | - |
| 1778022568 | 25° C | 50% | 1006.3 hPa | - | - | - | - |
| 1778021367 | 25.56° C | 50% | 1005.9 hPa | - | - | - | - |
| 1778018364 | 27.78° C | 46% | 1006.3 hPa | - | - | - | - |
| 1778017163 | 28.33° C | 41% | 1006.3 hPa | - | - | - | - |
* Rain since midnight (hover to see other rain measurements)
** Current wind speed in m/s (hover to see current wind gust speed)